Time;durP1;ratioP1;P1;durP2;ratioP2;P2;SDS_P1;SDS_P2;PMS_P1;PMS_P2;Temp;Humidity;BMP_temperature;BMP_pressure;BME280_temperature;BME280_humidity;BME280_pressure;Samples;Min_cycle;Max_cycle;Signal;HPM_P1;HPM_P2
2023/09/17 00:01:58;;;;;;;14.78;8.28;;;;;;;24.62;58.68;100826.95;2351454;75;50193;-76
2023/09/17 00:05:01;;;;;;;10.68;8.03;;;;;;;24.61;58.79;100830.69;2319087;75;50584;-76
2023/09/17 00:08:07;;;;;;;9.90;7.67;;;;;;;24.62;58.68;100835.89;2267372;75;53099;-75
2023/09/17 00:11:07;;;;;;;9.30;7.78;;;;;;;24.62;58.59;100829.66;2293353;75;22331;-75
2023/09/17 00:14:09;;;;;;;16.37;8.65;;;;;;;24.60;58.66;100829.04;2350214;75;51483;-75
2023/09/17 00:17:11;;;;;;;11.05;7.95;;;;;;;24.62;58.71;100831.84;2317585;75;51127;-74
2023/09/17 00:20:14;;;;;;;18.05;8.03;;;;;;;24.61;58.78;100823.42;2339304;75;50328;-74
2023/09/17 00:23:16;;;;;;;15.85;7.95;;;;;;;24.61;58.69;100823.42;2306003;75;50564;-74
2023/09/17 00:26:18;;;;;;;11.73;8.15;;;;;;;24.62;58.60;100824.25;2305802;75;50178;-74
2023/09/17 00:29:23;;;;;;;9.58;8.08;;;;;;;24.60;58.58;100827.16;2331875;75;50502;-74
2023/09/17 00:32:24;;;;;;;14.85;8.63;;;;;;;24.59;58.65;100830.10;2306371;75;22768;-74
2023/09/17 00:35:27;;;;;;;11.57;8.15;;;;;;;24.58;58.72;100833.30;2353534;75;50196;-74
2023/09/17 00:38:29;;;;;;;13.18;8.63;;;;;;;24.58;58.68;100833.84;2351862;75;52150;-73
2023/09/17 00:41:31;;;;;;;16.35;8.25;;;;;;;24.58;58.59;100829.78;2254582;76;51093;-73
2023/09/17 00:44:34;;;;;;;15.90;8.70;;;;;;;24.57;58.67;100822.72;2306236;75;50341;-74
2023/09/17 00:47:36;;;;;;;10.95;8.00;;;;;;;24.56;58.57;100830.02;2318569;75;50369;-74
2023/09/17 00:50:38;;;;;;;15.45;8.23;;;;;;;24.57;58.54;100824.08;2305627;76;50667;-75
2023/09/17 00:53:41;;;;;;;11.73;7.97;;;;;;;24.55;58.52;100826.45;2318369;76;50686;-74
2023/09/17 00:56:43;;;;;;;11.50;8.55;;;;;;;24.57;58.55;100830.84;2318722;76;50375;-74
2023/09/17 00:59:45;;;;;;;16.60;8.63;;;;;;;24.54;58.63;100826.16;2305105;76;51404;-74
2023/09/17 01:02:48;;;;;;;14.93;8.23;;;;;;;24.52;58.60;100821.48;2318377;76;50343;-74
2023/09/17 01:05:50;;;;;;;11.30;7.62;;;;;;;24.53;58.52;100821.81;2306671;76;52799;-74
2023/09/17 01:08:52;;;;;;;12.00;8.58;;;;;;;24.53;58.50;100823.17;2318909;75;50273;-73
2023/09/17 01:11:54;;;;;;;12.03;8.55;;;;;;;24.53;58.48;100820.95;2305215;76;50196;-74
2023/09/17 01:14:56;;;;;;;11.45;8.45;;;;;;;24.53;58.37;100822.31;2318345;75;50673;-74
2023/09/17 01:17:59;;;;;;;14.68;7.80;;;;;;;24.53;58.41;100820.95;2303249;76;51457;-74
2023/09/17 01:21:07;;;;;;;11.28;8.20;;;;;;;24.52;58.45;100821.48;2284825;77;51023;-74
2023/09/17 01:24:21;;;;;;;12.18;8.83;;;;;;;24.51;58.43;100821.73;2279970;76;51438;-74
2023/09/17 01:27:23;;;;;;;12.40;7.95;;;;;;;24.50;58.39;100818.70;2280204;76;50727;-75
2023/09/17 01:30:27;;;;;;;10.48;7.45;;;;;;;24.49;58.34;100823.28;2280226;76;51368;-75
2023/09/17 01:33:29;;;;;;;11.08;7.65;;;;;;;24.49;58.33;100827.34;2243396;78;51518;-75
2023/09/17 01:36:36;;;;;;;12.07;8.23;;;;;;;24.46;58.35;100825.08;2268190;77;51565;-74
2023/09/17 01:39:41;;;;;;;13.48;8.18;;;;;;;24.48;58.36;100823.48;2283209;76;51481;-74
2023/09/17 01:42:46;;;;;;;12.90;7.72;;;;;;;24.47;58.31;100819.96;2288691;77;51480;-74
2023/09/17 01:45:48;;;;;;;10.27;8.20;;;;;;;24.47;58.23;100826.72;2292197;76;50728;-75
2023/09/17 01:48:51;;;;;;;11.75;8.45;;;;;;;24.49;58.24;100822.46;2305361;77;51576;-74
2023/09/17 01:51:53;;;;;;;15.58;8.10;;;;;;;24.47;58.23;100825.38;2312040;75;51501;-74
2023/09/17 01:54:55;;;;;;;8.80;7.65;;;;;;;24.47;58.25;100831.31;2312372;76;51434;-74
2023/09/17 01:57:57;;;;;;;10.70;7.92;;;;;;;24.47;58.20;100817.26;2262788;77;50202;-75
2023/09/17 02:01:00;;;;;;;12.13;8.40;;;;;;;24.46;58.19;100823.73;2262733;77;50203;-75
2023/09/17 02:04:02;;;;;;;11.40;8.05;;;;;;;24.45;58.17;100817.99;2262222;77;50381;-74
2023/09/17 02:07:04;;;;;;;9.20;7.50;;;;;;;24.45;58.25;100824.75;2281469;77;50019;-73
2023/09/17 02:10:08;;;;;;;11.48;7.62;;;;;;;24.45;58.28;100823.94;2312756;77;50480;-74
2023/09/17 02:13:10;;;;;;;14.38;8.08;;;;;;;24.44;58.26;100824.43;2281377;77;51606;-75
2023/09/17 02:16:12;;;;;;;12.60;8.20;;;;;;;24.45;58.28;100826.11;2281551;77;49953;-76
2023/09/17 02:19:14;;;;;;;19.45;8.18;;;;;;;24.45;58.14;100828.81;2213252;77;51165;-76
2023/09/17 02:22:16;;;;;;;12.45;7.92;;;;;;;24.46;58.12;100833.72;2272527;77;50680;-76
2023/09/17 02:25:19;;;;;;;11.28;7.80;;;;;;;24.45;58.08;100836.92;2256527;77;51369;-73
2023/09/17 02:28:21;;;;;;;10.75;8.05;;;;;;;24.42;57.94;100833.28;2307224;77;50352;-74
2023/09/17 02:31:24;;;;;;;10.82;8.00;;;;;;;24.42;58.00;100833.28;2312772;77;51500;-74
2023/09/17 02:34:26;;;;;;;11.43;7.90;;;;;;;24.41;57.98;100838.39;2281194;76;51676;-73
2023/09/17 02:37:28;;;;;;;9.53;7.50;;;;;;;24.39;57.95;100835.07;2281733;77;51399;-74
2023/09/17 02:40:30;;;;;;;8.60;7.58;;;;;;;24.40;58.09;100828.60;2264157;76;51423;-73
2023/09/17 02:43:34;;;;;;;11.53;8.18;;;;;;;24.39;58.03;100825.61;2334765;75;51356;-74
2023/09/17 02:46:36;;;;;;;13.50;7.78;;;;;;;24.40;57.96;100831.84;2308617;76;50739;-72
2023/09/17 02:49:38;;;;;;;10.45;7.37;;;;;;;24.37;57.94;100829.05;2268439;76;50266;-74
2023/09/17 02:52:40;;;;;;;10.20;7.65;;;;;;;24.37;58.01;100830.92;2295039;77;51467;-72
2023/09/17 02:55:43;;;;;;;11.60;7.28;;;;;;;24.38;58.00;100835.28;2295407;77;51471;-73
2023/09/17 02:58:46;;;;;;;10.60;7.53;;;;;;;24.36;57.96;100834.16;2270029;77;51404;-74
2023/09/17 03:01:48;;;;;;;12.88;7.75;;;;;;;24.37;57.83;100824.98;2269895;77;51447;-73
2023/09/17 03:04:56;;;;;;;12.98;7.33;;;;;;;24.37;57.79;100819.58;2244827;77;51395;-73
2023/09/17 03:07:58;;;;;;;10.82;7.45;;;;;;;24.38;57.67;100823.96;2295538;76;22353;-74
2023/09/17 03:11:01;;;;;;;9.48;7.35;;;;;;;24.34;57.74;100822.20;2291148;77;51486;-74
2023/09/17 03:14:03;;;;;;;8.95;6.83;;;;;;;24.35;57.66;100820.31;2295122;77;51435;-74
2023/09/17 03:17:05;;;;;;;12.10;7.50;;;;;;;24.35;57.66;100817.61;2297581;76;51429;-74
2023/09/17 03:20:22;;;;;;;12.90;7.83;;;;;;;24.35;57.69;100823.02;2324478;76;51391;-74
2023/09/17 03:23:23;;;;;;;9.50;7.47;;;;;;;24.35;57.59;100827.08;2272698;77;22410;-74
2023/09/17 03:26:25;;;;;;;8.00;6.97;;;;;;;24.34;57.58;100824.08;2269961;77;50174;-74
2023/09/17 03:29:28;;;;;;;10.08;7.22;;;;;;;24.35;57.45;100821.66;2245260;77;49909;-75
2023/09/17 03:32:30;;;;;;;8.08;7.28;;;;;;;24.35;57.43;100828.42;2269877;77;51482;-74
2023/09/17 03:35:33;;;;;;;9.53;7.12;;;;;;;24.34;57.49;100828.13;2291111;77;51422;-74
2023/09/17 03:38:36;;;;;;;9.50;7.25;;;;;;;24.35;57.38;100820.31;2291265;77;50636;-75
2023/09/17 03:41:40;;;;;;;10.90;7.08;;;;;;;24.34;57.38;100822.20;2255564;78;50338;-74
2023/09/17 03:44:42;;;;;;;9.43;7.37;;;;;;;24.34;57.31;100818.67;2272065;77;51535;-75
2023/09/17 03:47:47;;;;;;;9.78;7.00;;;;;;;24.33;57.23;100826.48;2188985;76;52427;-74
2023/09/17 03:50:49;;;;;;;10.18;7.17;;;;;;;24.34;57.27;100829.48;2299449;77;22371;-74
2023/09/17 03:53:51;;;;;;;10.63;6.87;;;;;;;24.34;57.18;100828.13;2310668;76;51465;-74
2023/09/17 03:56:53;;;;;;;9.73;7.20;;;;;;;24.32;57.06;100828.34;2310900;77;51361;-74
2023/09/17 03:59:56;;;;;;;8.80;6.97;;;;;;;24.34;57.15;100834.89;2310847;77;51407;-74
2023/09/17 04:03:00;;;;;;;8.40;7.20;;;;;;;24.33;57.14;100838.13;2279329;76;51565;-75
2023/09/17 04:06:04;;;;;;;10.53;6.92;;;;;;;24.32;57.07;100832.92;2255438;77;50232;-74
2023/09/17 04:09:09;;;;;;;12.63;7.22;;;;;;;24.33;57.06;100835.95;2254281;77;22495;-74
2023/09/17 04:12:11;;;;;;;9.90;7.47;;;;;;;24.32;57.06;100842.39;2279887;77;22812;-73
2023/09/17 04:15:17;;;;;;;13.13;7.20;;;;;;;24.32;57.13;100836.45;2278528;77;50219;-73
2023/09/17 04:18:17;;;;;;;;;;;;;;;24.33;57.10;100845.42;2284112;76;22930;-76
2023/09/17 04:21:20;;;;;;;9.43;7.08;;;;;;;24.33;57.08;100838.66;2275794;76;52288;-74
2023/09/17 04:24:22;;;;;;;11.50;6.80;;;;;;;24.32;57.11;100835.62;2291622;76;50440;-74
2023/09/17 04:27:24;;;;;;;8.93;6.80;;;;;;;24.34;57.06;100848.42;2261399;77;51449;-75
2023/09/17 04:30:26;;;;;;;8.83;6.50;;;;;;;24.32;57.11;100843.73;2236474;77;49576;-74
2023/09/17 04:33:29;;;;;;;7.80;6.92;;;;;;;24.31;57.10;100851.56;2231618;76;50678;-75
2023/09/17 04:36:31;;;;;;;12.03;6.80;;;;;;;24.30;57.08;100856.64;2291777;76;50571;-73
2023/09/17 04:39:33;;;;;;;8.20;7.12;;;;;;;24.30;56.99;100853.44;2261251;77;51315;-73
2023/09/17 04:42:40;;;;;;;9.33;7.05;;;;;;;24.29;56.95;100856.34;2290509;76;51383;-72
2023/09/17 04:45:42;;;;;;;9.20;7.05;;;;;;;24.29;56.98;100857.70;2302964;76;52440;-73
2023/09/17 04:48:44;;;;;;;10.82;7.00;;;;;;;24.29;56.99;100852.29;2307872;76;51408;-73
2023/09/17 04:51:47;;;;;;;11.90;7.47;;;;;;;24.28;56.87;100857.41;2318811;76;50476;-73
2023/09/17 04:54:49;;;;;;;11.00;7.03;;;;;;;24.27;56.88;100866.02;2270081;76;51104;-73
2023/09/17 04:57:52;;;;;;;12.35;7.40;;;;;;;24.28;56.91;100868.22;2321468;76;51357;-74
2023/09/17 05:00:57;;;;;;;9.35;7.20;;;;;;;24.27;56.88;100869.25;2322187;76;51552;-74
2023/09/17 05:03:59;;;;;;;12.23;7.80;;;;;;;24.27;56.86;100869.25;2325031;76;50791;-75
2023/09/17 05:07:03;;;;;;;8.65;7.53;;;;;;;24.28;56.79;100872.28;2342831;76;50687;-75
2023/09/17 05:10:07;;;;;;;8.60;7.72;;;;;;;24.25;56.77;100864.57;2321988;76;51523;-75
2023/09/17 05:13:09;;;;;;;9.30;7.33;;;;;;;24.25;56.74;100870.84;2342389;76;50252;-75
2023/09/17 05:16:11;;;;;;;8.73;7.45;;;;;;;24.26;56.63;100871.13;2342473;75;50261;-75
2023/09/17 05:19:14;;;;;;;8.68;7.08;;;;;;;24.25;56.75;100867.28;2320880;76;51144;-75
2023/09/17 05:22:16;;;;;;;7.50;6.80;;;;;;;24.25;56.71;100864.57;2255594;77;50358;-76
2023/09/17 05:25:18;;;;;;;8.05;6.87;;;;;;;24.25;56.53;100876.24;2284070;77;50737;-75
2023/09/17 05:28:21;;;;;;;8.65;7.05;;;;;;;24.24;56.58;100869.16;2284090;77;51400;-75
2023/09/17 05:31:23;;;;;;;12.10;7.60;;;;;;;24.25;56.55;100874.89;2284221;77;51512;-75
2023/09/17 05:34:25;;;;;;;11.95;7.70;;;;;;;24.24;56.53;100869.69;2283783;76;52191;-76
2023/09/17 05:37:28;;;;;;;12.88;7.30;;;;;;;24.24;56.42;100877.27;2321395;76;51555;-76
2023/09/17 05:40:30;;;;;;;19.30;7.40;;;;;;;24.24;56.35;100879.15;2320377;76;51464;-75
2023/09/17 05:43:32;;;;;;;16.00;7.65;;;;;;;24.23;56.17;100884.27;2282034;76;50082;-75
2023/09/17 05:46:35;;;;;;;16.75;8.18;;;;;;;24.23;56.27;100891.84;2321396;76;51453;-75
2023/09/17 05:49:37;;;;;;;13.70;8.15;;;;;;;24.24;56.23;100881.86;2313813;76;51471;-73
2023/09/17 05:52:39;;;;;;;16.15;8.55;;;;;;;24.28;55.63;100885.80;2297024;75;51544;-75
2023/09/17 05:55:41;;;;;;;12.35;8.58;;;;;;;24.39;54.18;100889.70;2330347;76;50242;-75
2023/09/17 05:58:43;;;;;;;13.45;9.55;;;;;;;24.38;53.22;100890.72;2308157;76;50367;-74
2023/09/17 06:01:46;;;;;;;12.25;9.05;;;;;;;24.34;52.73;100897.09;2299574;76;50179;-75
2023/09/17 06:04:52;;;;;;;14.85;9.33;;;;;;;24.41;52.07;100895.20;2275274;76;50110;-76
2023/09/17 06:07:52;;;;;;;13.10;8.73;;;;;;;24.36;51.66;100903.12;2282064;76;22819;-76
2023/09/17 06:10:55;;;;;;;13.75;10.23;;;;;;;24.43;51.60;100909.34;2314264;76;50223;-77
2023/09/17 06:13:57;;;;;;;11.73;8.93;;;;;;;24.42;51.36;100911.72;2301743;76;51474;-76
2023/09/17 06:16:59;;;;;;;10.95;8.78;;;;;;;24.47;51.40;100920.05;2275881;77;51375;-76
2023/09/17 06:20:02;;;;;;;12.23;9.25;;;;;;;24.44;51.15;100911.52;2310294;76;51386;-75
2023/09/17 06:23:04;;;;;;;11.83;9.15;;;;;;;24.35;51.13;100916.33;2304037;76;50634;-75
2023/09/17 06:26:08;;;;;;;13.08;9.20;;;;;;;24.38;51.09;100912.36;2281251;76;50154;-76
2023/09/17 06:29:10;;;;;;;16.87;8.98;;;;;;;24.38;51.17;100911.86;2334709;75;50635;-75
2023/09/17 06:32:13;;;;;;;13.08;9.43;;;;;;;24.40;51.08;100916.50;2282635;76;52429;-76
2023/09/17 06:35:16;;;;;;;13.13;9.95;;;;;;;24.39;51.08;100924.33;2330419;76;50355;-75
2023/09/17 06:38:18;;;;;;;17.25;9.00;;;;;;;24.34;51.12;100928.20;2282871;76;50450;-75
2023/09/17 06:41:21;;;;;;;17.48;10.63;;;;;;;24.33;51.28;100917.91;2275380;76;50320;-76
2023/09/17 06:44:23;;;;;;;15.58;10.00;;;;;;;24.30;51.35;100920.20;2315680;76;49985;-76
2023/09/17 06:47:25;;;;;;;13.15;9.60;;;;;;;24.32;51.39;100924.87;2272025;76;52585;-76
2023/09/17 06:50:28;;;;;;;14.47;9.68;;;;;;;24.32;51.33;100922.16;2307402;75;51494;-75
2023/09/17 06:53:30;;;;;;;16.37;9.15;;;;;;;24.30;51.39;100930.52;2305827;76;51478;-76
2023/09/17 06:56:32;;;;;;;14.23;9.35;;;;;;;24.27;51.43;100930.09;2246057;77;52484;-76
2023/09/17 06:59:34;;;;;;;10.35;8.98;;;;;;;24.28;51.54;100929.06;2304095;76;51470;-76
2023/09/17 07:02:37;;;;;;;12.25;8.80;;;;;;;24.33;51.39;100931.43;2283722;76;51463;-76
2023/09/17 07:05:39;;;;;;;9.95;8.23;;;;;;;24.34;51.38;100939.02;2307154;76;50228;-76
2023/09/17 07:08:41;;;;;;;11.25;9.00;;;;;;;24.33;51.54;100943.60;2284607;76;50323;-75
2023/09/17 07:11:43;;;;;;;11.97;8.13;;;;;;;24.31;51.58;100944.86;2307088;76;50269;-74
2023/09/17 07:14:46;;;;;;;10.88;8.43;;;;;;;24.32;51.66;100946.51;2272904;77;51155;-76
2023/09/17 07:17:48;;;;;;;13.28;9.15;;;;;;;24.34;51.94;100947.12;2300333;77;51979;-76
2023/09/17 07:20:50;;;;;;;16.87;8.45;;;;;;;24.35;52.23;100947.42;2310314;76;51468;-76
2023/09/17 07:23:53;;;;;;;19.85;9.20;;;;;;;24.37;52.60;100952.63;2266483;76;51264;-74
2023/09/17 07:26:55;;;;;;;15.45;8.58;;;;;;;24.42;52.67;100950.94;2277847;76;50620;-78
2023/09/17 07:29:57;;;;;;;12.63;8.18;;;;;;;24.44;52.83;100947.50;2275968;76;51116;-76
2023/09/17 07:32:59;;;;;;;10.45;7.95;;;;;;;24.46;52.82;100944.09;2323274;76;51422;-74
2023/09/17 07:36:02;;;;;;;13.38;8.85;;;;;;;24.49;52.79;100957.72;2313111;76;51338;-75
2023/09/17 07:39:05;;;;;;;13.65;7.85;;;;;;;24.49;52.82;100950.42;2249717;76;51700;-75
2023/09/17 07:42:08;;;;;;;13.78;7.75;;;;;;;24.55;52.84;100950.08;2264702;76;50463;-75
2023/09/17 07:45:12;;;;;;;13.05;7.37;;;;;;;24.56;52.78;100945.00;2320881;76;51477;-75
2023/09/17 07:48:14;;;;;;;35.40;8.45;;;;;;;24.57;52.61;100952.58;2297539;76;22347;-74
2023/09/17 07:51:16;;;;;;;17.05;7.45;;;;;;;24.56;52.62;100951.76;2294732;76;51433;-74
2023/09/17 07:54:18;;;;;;;14.10;8.25;;;;;;;24.53;52.63;100949.45;2299873;76;52310;-75
2023/09/17 07:57:21;;;;;;;12.73;8.15;;;;;;;24.52;52.64;100951.87;2282946;76;51348;-74
2023/09/17 08:00:23;;;;;;;14.05;7.75;;;;;;;24.52;52.66;100954.05;2339947;76;51452;-75
2023/09/17 08:03:25;;;;;;;12.00;7.70;;;;;;;24.51;52.63;100952.40;2275176;76;51120;-75
2023/09/17 08:06:27;;;;;;;12.25;6.55;;;;;;;24.53;52.69;100955.72;2322009;76;50214;-77
2023/09/17 08:09:30;;;;;;;14.05;7.60;;;;;;;24.54;52.67;100957.38;2341880;76;50263;-76
2023/09/17 08:12:32;;;;;;;12.80;7.28;;;;;;;24.53;52.74;100965.69;2291010;76;51480;-75
2023/09/17 08:15:34;;;;;;;12.88;7.40;;;;;;;24.51;52.77;100961.87;2283558;77;50324;-74
2023/09/17 08:18:37;;;;;;;10.68;6.95;;;;;;;24.51;52.89;100958.34;2297134;76;52255;-75
2023/09/17 08:21:39;;;;;;;19.00;7.85;;;;;;;24.52;52.85;100963.52;2310176;76;49899;-75
2023/09/17 08:24:41;;;;;;;17.17;7.78;;;;;;;24.51;53.13;100950.22;2275960;76;51425;-75
2023/09/17 08:27:44;;;;;;;26.35;7.58;;;;;;;24.54;53.16;100958.72;2233266;77;52313;-76
2023/09/17 08:30:47;;;;;;;23.27;8.70;;;;;;;24.58;53.16;100960.99;2341606;76;50315;-77
2023/09/17 08:33:50;;;;;;;26.75;8.80;;;;;;;24.60;53.09;100963.79;2290360;76;51635;-73
2023/09/17 08:36:53;;;;;;;30.75;8.48;;;;;;;24.61;53.06;100962.77;2303021;77;50332;-72
2023/09/17 08:39:56;;;;;;;102.02;13.58;;;;;;;24.64;52.95;100963.68;2309165;77;51420;-74
2023/09/17 08:42:58;;;;;;;78.87;13.15;;;;;;;24.60;53.18;100962.97;2282584;75;49580;-72
2023/09/17 08:46:03;;;;;;;62.85;11.70;;;;;;;24.60;53.16;100964.32;2314810;76;51430;-73
2023/09/17 08:49:06;;;;;;;56.42;11.95;;;;;;;24.60;53.12;100958.91;2268863;78;50703;-76
2023/09/17 08:52:08;;;;;;;70.95;11.57;;;;;;;24.58;53.16;100957.76;2221073;78;52464;-75
2023/09/17 08:55:10;;;;;;;51.50;11.33;;;;;;;24.61;53.13;100947.03;2277841;76;50550;-73
2023/09/17 08:58:15;;;;;;;46.08;10.38;;;;;;;24.58;53.13;100955.58;2318627;76;50592;-71
2023/09/17 09:01:17;;;;;;;40.65;10.38;;;;;;;24.55;53.24;100953.61;2304175;76;51436;-72
2023/09/17 09:04:19;;;;;;;49.55;10.35;;;;;;;24.52;53.46;100943.75;2315967;76;51369;-72
2023/09/17 09:07:22;;;;;;;40.50;10.28;;;;;;;24.55;53.35;100943.31;2269314;76;49556;-72
2023/09/17 09:10:25;;;;;;;52.15;11.38;;;;;;;24.58;53.26;100948.29;2297931;76;50314;-74
2023/09/17 09:13:27;;;;;;;45.38;10.55;;;;;;;24.59;53.20;100953.20;2267652;78;50307;-71
2023/09/17 09:16:29;;;;;;;39.08;10.20;;;;;;;24.58;53.23;100944.23;2316850;76;50221;-72
2023/09/17 09:19:31;;;;;;;47.05;9.80;;;;;;;24.58;53.43;100944.23;2300077;76;50330;-72
2023/09/17 09:22:33;;;;;;;41.95;10.00;;;;;;;24.55;53.56;100950.91;2274051;77;50583;-77
2023/09/17 09:25:36;;;;;;;39.08;9.50;;;;;;;24.58;53.54;100951.00;2255798;78;51440;-77
2023/09/17 09:28:39;;;;;;;44.63;9.53;;;;;;;24.51;53.78;100951.05;2274971;78;50617;-78
2023/09/17 09:31:42;;;;;;;38.80;10.58;;;;;;;24.50;53.89;100949.37;2292970;76;50249;-76
2023/09/17 09:34:44;;;;;;;45.95;10.65;;;;;;;24.50;53.97;100949.89;2304171;76;51501;-75
2023/09/17 09:37:46;;;;;;;43.58;9.43;;;;;;;24.51;53.88;100944.28;2292611;76;50091;-75
2023/09/17 09:40:49;;;;;;;41.00;9.95;;;;;;;24.51;53.85;100942.93;2316598;76;50101;-75
2023/09/17 09:43:51;;;;;;;33.67;9.15;;;;;;;24.53;53.84;100947.61;2314110;76;50425;-75
2023/09/17 09:46:58;;;;;;;39.65;9.50;;;;;;;24.54;54.15;100946.55;2255768;77;50679;-76
2023/09/17 09:50:00;;;;;;;33.88;9.93;;;;;;;24.54;54.29;100945.20;2279348;77;50239;-76
2023/09/17 09:53:03;;;;;;;33.92;9.68;;;;;;;24.52;54.25;100948.64;2258334;77;50481;-76
2023/09/17 09:56:05;;;;;;;35.48;9.88;;;;;;;24.52;54.34;100947.28;2202590;78;51711;-77
2023/09/17 09:59:07;;;;;;;27.82;9.48;;;;;;;24.54;54.15;100945.20;2249120;79;51379;-76
2023/09/17 10:02:11;;;;;;;33.05;9.18;;;;;;;24.59;54.09;100939.67;2298158;77;50609;-77
2023/09/17 10:05:18;;;;;;;41.70;10.10;;;;;;;24.59;54.11;100941.03;2275069;77;50083;-77
2023/09/17 10:08:17;;;;;;;33.15;9.30;;;;;;;24.58;54.25;100942.05;2292223;77;22492;-75
2023/09/17 10:11:20;;;;;;;33.63;9.28;;;;;;;24.59;54.33;100938.33;2272955;77;51471;-75
2023/09/17 10:14:22;;;;;;;28.47;9.15;;;;;;;24.58;54.35;100940.17;2251994;77;50333;-75
2023/09/17 10:17:24;;;;;;;23.27;8.53;;;;;;;24.57;54.42;100937.70;2288992;77;50206;-76
2023/09/17 10:20:27;;;;;;;31.12;9.30;;;;;;;24.63;54.29;100937.65;2261179;77;51117;-77
2023/09/17 10:23:31;;;;;;;31.97;9.40;;;;;;;24.62;54.34;100930.59;2254308;78;50272;-76
2023/09/17 10:26:37;;;;;;;34.33;10.10;;;;;;;24.62;54.34;100937.88;2274110;78;51498;-76
2023/09/17 10:29:38;;;;;;;30.50;9.85;;;;;;;24.60;54.55;100932.67;2274172;77;22968;-77
2023/09/17 10:32:40;;;;;;;26.42;9.75;;;;;;;24.62;54.48;100933.30;2292255;77;52412;-76
2023/09/17 10:35:46;;;;;;;25.55;9.48;;;;;;;24.61;54.50;100920.83;2309342;77;50662;-76
2023/09/17 10:38:48;;;;;;;26.48;8.98;;;;;;;24.63;54.55;100926.00;2255236;77;49955;-77
2023/09/17 10:41:50;;;;;;;31.35;8.75;;;;;;;24.66;54.48;100925.56;2279185;77;50244;-76
2023/09/17 10:44:54;;;;;;;26.70;9.43;;;;;;;24.64;54.51;100926.33;2313620;76;50409;-76
2023/09/17 10:47:57;;;;;;;26.07;8.93;;;;;;;24.63;54.47;100930.89;2316638;76;50219;-77
2023/09/17 10:51:00;;;;;;;22.67;9.18;;;;;;;24.66;54.33;100935.89;2316711;76;51484;-76
2023/09/17 10:54:03;;;;;;;33.98;8.25;;;;;;;24.66;54.13;100939.09;2290652;76;51215;-74
2023/09/17 10:57:09;;;;;;;27.82;9.15;;;;;;;24.67;54.19;100928.59;2287013;76;50242;-77
2023/09/17 11:00:17;;;;;;;21.12;8.38;;;;;;;24.67;54.24;100932.66;2296179;76;50177;-75
2023/09/17 11:03:20;;;;;;;26.20;9.23;;;;;;;24.66;54.26;100935.03;2299973;75;22371;-76
2023/09/17 11:06:26;;;;;;;31.37;9.30;;;;;;;24.64;54.38;100939.33;2295057;76;51557;-76
2023/09/17 11:09:28;;;;;;;22.27;8.50;;;;;;;24.65;54.53;100930.68;2306278;75;52432;-75
2023/09/17 11:12:30;;;;;;;24.63;9.25;;;;;;;24.64;54.67;100934.45;2318476;75;51548;-75
2023/09/17 11:15:32;;;;;;;16.37;8.20;;;;;;;24.64;54.71;100929.03;2301248;75;51524;-77
2023/09/17 11:18:35;;;;;;;20.30;8.90;;;;;;;24.67;54.64;100936.19;2285864;76;50029;-77
2023/09/17 11:21:39;;;;;;;21.05;8.25;;;;;;;24.68;54.52;100931.59;2300592;75;50401;-76
2023/09/17 11:24:42;;;;;;;26.62;9.58;;;;;;;24.69;54.45;100936.80;2314413;75;50642;-76
2023/09/17 11:27:46;;;;;;;24.30;9.40;;;;;;;24.66;54.52;100931.83;2280573;76;50241;-75
2023/09/17 11:31:06;;;;;;;21.68;9.05;;;;;;;24.63;54.54;100934.12;2318230;75;51614;-75
2023/09/17 11:34:11;;;;;;;21.87;8.13;;;;;;;24.62;54.70;100933.83;2315799;76;22765;-76
2023/09/17 11:37:15;;;;;;;21.95;8.58;;;;;;;24.62;54.61;100927.89;2306545;76;50603;-76
2023/09/17 11:40:18;;;;;;;19.50;8.20;;;;;;;24.62;54.70;100932.47;2304989;75;50296;-75
2023/09/17 11:43:20;;;;;;;17.95;8.05;;;;;;;24.63;54.81;100932.77;2307959;75;51485;-77
2023/09/17 11:46:23;;;;;;;22.32;8.55;;;;;;;24.63;54.72;100932.23;2276369;76;51397;-77
2023/09/17 11:49:26;;;;;;;19.77;8.68;;;;;;;24.64;54.67;100926.33;2318476;76;50245;-76
2023/09/17 11:52:28;;;;;;;23.45;8.50;;;;;;;24.63;54.59;100931.41;2332406;76;50069;-76
2023/09/17 11:55:32;;;;;;;24.18;8.55;;;;;;;24.64;54.47;100931.73;2305040;76;51474;-76
2023/09/17 11:58:35;;;;;;;22.37;7.92;;;;;;;24.64;54.15;100933.09;2251898;78;22378;-75
2023/09/17 12:01:41;;;;;;;20.02;8.00;;;;;;;24.63;54.03;100934.12;2276362;76;51504;-74
2023/09/17 12:04:43;;;;;;;20.85;7.72;;;;;;;24.62;53.17;100939.23;2293382;76;51420;-74
2023/09/17 12:07:46;;;;;;;15.15;7.72;;;;;;;24.61;52.90;100926.73;2280920;75;51188;-74
2023/09/17 12:10:52;;;;;;;15.85;7.25;;;;;;;24.60;52.96;100937.27;2318006;75;51485;-75
2023/09/17 12:13:56;;;;;;;16.70;7.87;;;;;;;24.58;52.83;100936.11;2308701;76;22364;-75
2023/09/17 12:16:57;;;;;;;13.18;7.17;;;;;;;24.58;53.11;100928.53;2286460;77;22275;-74
2023/09/17 12:20:12;;;;;;;14.18;6.97;;;;;;;24.61;52.54;100930.30;2271519;77;50655;-78
2023/09/17 12:23:07;;;;;;;14.53;7.12;;;;;;;24.61;52.55;100931.66;2300165;76;22446;-76
2023/09/17 12:26:08;;;;;;;10.53;7.10;;;;;;;24.61;52.48;100927.59;2300946;76;22285;-77
2023/09/17 12:29:10;;;;;;;13.40;7.25;;;;;;;24.61;52.49;100932.15;2314930;76;50650;-75
2023/09/17 12:32:12;;;;;;;13.60;6.95;;;;;;;24.62;52.44;100932.47;2288683;76;52459;-76
2023/09/17 12:35:14;;;;;;;13.00;6.97;;;;;;;24.63;52.33;100926.00;2311073;76;51397;-76
2023/09/17 12:38:16;;;;;;;10.53;6.95;;;;;;;24.63;52.33;100923.30;2318628;76;51399;-76
2023/09/17 12:41:19;;;;;;;10.13;6.50;;;;;;;24.63;52.21;100921.95;2306392;76;50203;-77
2023/09/17 12:44:22;;;;;;;10.98;6.72;;;;;;;24.64;52.29;100927.16;2292078;76;50566;-76
2023/09/17 12:47:26;;;;;;;10.32;7.05;;;;;;;24.64;52.31;100922.27;2243595;78;52553;-75
2023/09/17 12:50:28;;;;;;;11.85;6.87;;;;;;;24.66;52.21;100921.50;2279965;78;50448;-75
2023/09/17 12:53:31;;;;;;;13.25;6.80;;;;;;;24.65;52.20;100920.68;2279775;78;50681;-75
2023/09/17 12:56:33;;;;;;;9.75;6.03;;;;;;;24.65;52.13;100917.98;2275956;76;52535;-76
2023/09/17 12:59:37;;;;;;;10.18;6.22;;;;;;;24.65;52.18;100910.39;2273643;76;50492;-77
2023/09/17 13:02:39;;;;;;;9.23;6.17;;;;;;;24.62;52.27;100917.06;2318379;76;50594;-75
2023/09/17 13:05:43;;;;;;;9.65;6.60;;;;;;;24.63;52.28;100913.30;2306627;76;50305;-75
2023/09/17 13:08:45;;;;;;;15.32;6.92;;;;;;;24.63;52.28;100909.77;2286107;76;51537;-75
2023/09/17 13:11:47;;;;;;;9.83;6.30;;;;;;;24.63;53.00;100908.42;2292241;76;52104;-76
2023/09/17 13:14:51;;;;;;;9.45;6.55;;;;;;;24.65;52.81;100907.16;2318394;76;51383;-77
2023/09/17 13:17:53;;;;;;;21.97;7.83;;;;;;;24.65;51.32;100909.86;2317996;76;50661;-77
2023/09/17 13:20:55;;;;;;;9.33;6.30;;;;;;;24.69;50.42;100908.92;2290844;76;51129;-77
2023/09/17 13:24:00;;;;;;;9.85;5.70;;;;;;;24.75;50.06;100908.03;2317180;76;50626;-76
2023/09/17 13:27:07;;;;;;;9.30;5.42;;;;;;;24.72;49.74;100910.66;2304809;76;50641;-76
2023/09/17 13:30:08;;;;;;;7.47;5.42;;;;;;;24.73;47.54;100906.06;2305805;76;22403;-77
2023/09/17 13:33:17;;;;;;;6.00;5.37;;;;;;;24.84;47.52;100905.39;2296717;76;51600;-76
2023/09/17 13:36:17;;;;;;;8.85;5.92;;;;;;;24.84;46.49;100901.33;2268433;78;22051;-76
2023/09/17 13:39:19;;;;;;;7.10;6.05;;;;;;;24.81;47.07;100901.73;2280216;78;50212;-78
2023/09/17 13:42:22;;;;;;;6.62;5.78;;;;;;;24.80;46.40;100897.39;2280065;77;50574;-78
2023/09/17 13:45:24;;;;;;;9.20;5.80;;;;;;;24.86;46.24;100897.03;2270314;77;52419;-77
2023/09/17 13:48:26;;;;;;;6.58;4.80;;;;;;;24.85;46.28;100884.03;2288910;76;50571;-79
2023/09/17 13:51:29;;;;;;;15.05;6.25;;;;;;;25.24;46.29;100886.14;2282077;76;50178;-76
2023/09/17 13:54:31;;;;;;;15.88;6.65;;;;;;;25.19;46.83;100883.27;2255489;76;50622;-75
2023/09/17 13:57:33;;;;;;;10.35;5.97;;;;;;;25.08;47.23;100885.32;2264322;76;50306;-77
2023/09/17 14:00:35;;;;;;;15.15;6.92;;;;;;;25.16;46.12;100884.54;2259587;76;51627;-76
2023/09/17 14:03:38;;;;;;;9.93;6.53;;;;;;;25.14;47.24;100885.78;2308183;76;51307;-76